Time;durP1;ratioP1;P1;durP2;ratioP2;P2;SDS_P1;SDS_P2;PMS_P1;PMS_P2;Temp;Humidity;BMP_temperature;BMP_pressure;BME280_temperature;BME280_humidity;BME280_pressure;Samples;Min_cycle;Max_cycle;Signal;HPM_P1;HPM_P2
2023/06/25 00:00:19;;;;;;;5.50;3.80;;;;;;;16.25;100.00;101188.66;697922;28;1374;-52
2023/06/25 00:00:39;;;;;;;5.53;3.47;;;;;;;16.22;100.00;101180.81;699833;28;4349;-50
2023/06/25 00:01:00;;;;;;;5.78;3.60;;;;;;;16.18;100.00;101187.06;700929;28;973;-48
2023/06/25 00:01:21;;;;;;;6.43;4.15;;;;;;;16.18;100.00;101181.78;699258;28;1552;-51
2023/06/25 00:01:41;;;;;;;5.97;4.05;;;;;;;16.17;100.00;101178.28;700628;28;1173;-50
2023/06/25 00:02:02;;;;;;;5.50;3.70;;;;;;;16.20;100.00;101182.63;699717;28;1091;-53
2023/06/25 00:02:22;;;;;;;6.27;3.70;;;;;;;16.21;100.00;101184.34;697373;28;1534;-54
2023/06/25 00:02:42;;;;;;;7.15;4.07;;;;;;;16.21;100.00;101181.72;701007;28;1111;-52
2023/06/25 00:03:03;;;;;;;7.23;3.97;;;;;;;16.20;100.00;101176.47;700620;28;1086;-53
2023/06/25 00:03:23;;;;;;;6.63;3.83;;;;;;;16.19;100.00;101172.97;699032;28;1510;-53
2023/06/25 00:03:44;;;;;;;5.83;3.70;;;;;;;16.21;100.00;101178.22;699742;28;4364;-51
2023/06/25 00:04:05;;;;;;;6.15;3.72;;;;;;;16.21;100.00;101173.81;699107;28;1736;-51
2023/06/25 00:04:25;;;;;;;5.90;3.60;;;;;;;16.22;100.00;101175.53;698913;28;931;-52
2023/06/25 00:04:46;;;;;;;5.90;3.53;;;;;;;16.22;100.00;101177.31;700700;28;774;-52
2023/06/25 00:05:06;;;;;;;5.85;3.85;;;;;;;16.19;100.00;101175.63;698934;28;1821;-48
2023/06/25 00:05:27;;;;;;;5.90;3.60;;;;;;;16.19;100.00;101180.03;699380;28;824;-52
2023/06/25 00:05:48;;;;;;;6.28;3.83;;;;;;;16.18;100.00;101176.50;699612;28;1511;-50
2023/06/25 00:06:09;;;;;;;5.83;3.90;;;;;;;16.19;100.00;101182.69;699318;28;1509;-49
2023/06/25 00:06:29;;;;;;;5.57;3.55;;;;;;;16.17;100.00;101180.94;697827;28;913;-49
2023/06/25 00:06:49;;;;;;;6.60;3.77;;;;;;;16.23;100.00;101176.44;696956;28;4238;-49
2023/06/25 00:07:10;;;;;;;5.95;3.72;;;;;;;16.24;100.00;101172.88;697773;28;1503;-48
2023/06/25 00:07:30;;;;;;;6.30;3.77;;;;;;;16.24;100.00;101172.88;696821;28;918;-50
2023/06/25 00:07:51;;;;;;;6.03;3.67;;;;;;;16.23;100.00;101171.16;697773;28;867;-51
2023/06/25 00:08:11;;;;;;;5.73;3.70;;;;;;;16.21;100.00;101176.44;696398;28;1474;-51
2023/06/25 00:08:31;;;;;;;5.97;3.60;;;;;;;16.19;100.00;101172.97;696565;28;1044;-49
2023/06/25 00:08:52;;;;;;;6.10;3.78;;;;;;;16.21;100.00;101173.81;696126;28;901;-49
2023/06/25 00:09:13;;;;;;;6.17;4.17;;;;;;;16.19;100.00;101167.72;696705;28;1624;-53
2023/06/25 00:09:33;;;;;;;5.80;3.90;;;;;;;16.20;100.00;101172.09;696591;28;4437;-48
2023/06/25 00:09:55;;;;;;;6.47;4.20;;;;;;;16.22;100.00;101169.41;697143;28;907;-49
2023/06/25 00:10:15;;;;;;;6.07;3.88;;;;;;;16.18;100.00;101165.97;695089;28;1451;-49
2023/06/25 00:10:36;;;;;;;6.07;3.70;;;;;;;16.17;100.00;101166.84;697357;28;861;-48
2023/06/25 00:10:56;;;;;;;6.00;3.80;;;;;;;16.16;100.00;101163.34;697036;28;842;-48
2023/06/25 00:11:16;;;;;;;6.70;3.88;;;;;;;16.17;100.00;101167.75;697128;28;1446;-48
2023/06/25 00:11:37;;;;;;;7.87;4.10;;;;;;;16.19;100.00;101156.28;697540;28;1185;-50
2023/06/25 00:11:57;;;;;;;6.27;4.00;;;;;;;16.16;100.00;101163.34;697334;28;804;-47
2023/06/25 00:12:18;;;;;;;6.10;3.92;;;;;;;16.13;100.00;101167.81;696236;28;1572;-49
2023/06/25 00:12:38;;;;;;;6.70;4.20;;;;;;;16.14;100.00;101164.28;693613;28;4317;-49
2023/06/25 00:12:59;;;;;;;6.38;3.90;;;;;;;16.14;100.00;101161.63;700334;28;1035;-48
2023/06/25 00:13:19;;;;;;;5.97;3.63;;;;;;;16.13;100.00;101160.78;698625;28;1522;-51
2023/06/25 00:13:40;;;;;;;6.80;3.75;;;;;;;16.15;100.00;101164.25;699513;28;776;-48
2023/06/25 00:14:01;;;;;;;6.17;3.80;;;;;;;16.12;100.00;101161.69;700296;28;970;-48
2023/06/25 00:14:22;;;;;;;6.30;3.58;;;;;;;16.19;100.00;101169.47;698438;28;1661;-51
2023/06/25 00:14:42;;;;;;;7.60;3.35;;;;;;;16.20;100.00;101166.81;699545;28;843;-49
2023/06/25 00:15:03;;;;;;;7.67;3.70;;;;;;;16.21;100.00;101165.88;700573;28;983;-48
2023/06/25 00:15:24;;;;;;;7.97;3.80;;;;;;;16.22;100.00;101162.34;699284;28;1461;-48
2023/06/25 00:15:45;;;;;;;5.90;3.97;;;;;;;16.23;100.00;101163.25;697954;28;4544;-49
2023/06/25 00:16:06;;;;;;;5.40;3.70;;;;;;;16.23;100.00;101161.47;698994;28;1635;-50
2023/06/25 00:16:29;;;;;;;6.10;3.60;;;;;;;16.21;100.00;101163.25;700376;28;1091;-49
2023/06/25 00:16:57;;;;;;;5.75;3.60;;;;;;;16.20;100.00;101166.81;698843;28;1979;-51
2023/06/25 00:17:17;;;;;;;5.95;3.65;;;;;;;16.17;100.00;101162.47;698578;28;1487;-51
2023/06/25 00:17:38;;;;;;;5.90;4.07;;;;;;;16.17;100.00;101165.09;700427;28;844;-49
2023/06/25 00:17:59;;;;;;;7.78;3.90;;;;;;;16.17;100.00;101161.56;698756;28;1151;-49
2023/06/25 00:18:19;;;;;;;6.80;3.92;;;;;;;16.17;100.00;101162.47;698186;28;1616;-49
2023/06/25 00:18:39;;;;;;;5.97;4.00;;;;;;;16.17;100.00;101156.31;700850;28;4576;-49
2023/06/25 00:19:00;;;;;;;6.10;3.75;;;;;;;16.19;100.00;101161.56;698606;28;1126;-50
2023/06/25 00:19:21;;;;;;;5.87;3.87;;;;;;;16.17;100.00;101161.56;698475;28;1442;-48
2023/06/25 00:19:41;;;;;;;6.03;3.97;;;;;;;16.16;100.00;101165.13;700392;28;1223;-48
2023/06/25 00:20:02;;;;;;;5.63;3.93;;;;;;;16.15;100.00;101163.38;699017;28;1014;-48
2023/06/25 00:20:26;;;;;;;5.47;3.58;;;;;;;16.14;100.00;101164.28;698489;28;1588;-49
2023/06/25 00:20:46;;;;;;;5.90;3.92;;;;;;;16.15;100.00;101160.75;700507;28;5571;-49
2023/06/25 00:21:07;;;;;;;5.87;4.00;;;;;;;16.15;100.00;101160.75;697837;28;1644;-50
2023/06/25 00:21:28;;;;;;;5.72;3.80;;;;;;;16.15;100.00;101166.03;699086;28;1270;-51
2023/06/25 00:21:48;;;;;;;5.85;3.83;;;;;;;16.16;100.00;101159.84;698588;28;5360;-51
2023/06/25 00:22:11;;;;;;;6.20;3.70;;;;;;;16.16;100.00;101160.72;699826;28;1686;-49
2023/06/25 00:22:31;;;;;;;6.60;4.00;;;;;;;16.16;100.00;101160.72;702247;28;1700;-49
2023/06/25 00:22:52;;;;;;;6.70;3.83;;;;;;;16.17;100.00;101164.22;701950;28;1078;-48
2023/06/25 00:23:13;;;;;;;6.40;3.92;;;;;;;16.17;100.00;101161.56;700886;28;1600;-49
2023/06/25 00:23:33;;;;;;;5.73;3.87;;;;;;;16.16;100.00;101152.81;703052;28;975;-48
2023/06/25 00:23:54;;;;;;;5.80;4.00;;;;;;;16.17;100.00;101157.19;703298;28;907;-48
2023/06/25 00:24:15;;;;;;;6.03;3.97;;;;;;;16.20;100.00;101166.81;700889;28;898;-48
2023/06/25 00:24:35;;;;;;;6.72;4.13;;;;;;;16.19;100.00;101165.06;698881;28;4268;-49
2023/06/25 00:24:56;;;;;;;6.23;3.97;;;;;;;16.21;100.00;101157.97;699323;28;837;-48
2023/06/25 00:25:17;;;;;;;5.77;3.83;;;;;;;16.21;100.00;101160.63;697562;28;1517;-50
2023/06/25 00:25:37;;;;;;;5.90;3.90;;;;;;;16.22;100.00;101161.50;699392;28;926;-50
2023/06/25 00:25:57;;;;;;;6.22;4.10;;;;;;;16.22;100.00;101154.44;698876;28;842;-48
2023/06/25 00:26:18;;;;;;;5.97;4.03;;;;;;;16.23;100.00;101155.34;696603;28;1571;-48
2023/06/25 00:26:45;;;;;;;6.60;3.75;;;;;;;16.24;100.00;101157.03;698787;28;1740;-49
2023/06/25 00:27:06;;;;;;;6.72;3.97;;;;;;;16.23;100.00;101161.47;697521;28;1566;-49
2023/06/25 00:27:27;;;;;;;5.97;3.95;;;;;;;16.23;100.00;101158.81;696775;28;899;-48
2023/06/25 00:27:50;;;;;;;6.10;3.83;;;;;;;16.24;100.00;101160.56;697502;28;4458;-48
2023/06/25 00:28:10;;;;;;;6.70;3.70;;;;;;;16.22;100.00;101157.09;695049;28;1425;-49
2023/06/25 00:28:31;;;;;;;6.17;3.83;;;;;;;16.22;100.00;101156.22;693175;28;1172;-49
2023/06/25 00:28:52;;;;;;;6.18;3.97;;;;;;;16.21;100.00;101155.34;696978;28;1212;-52
2023/06/25 00:29:13;;;;;;;6.90;4.00;;;;;;;16.26;100.00;101161.41;696834;28;1487;-50
2023/06/25 00:29:34;;;;;;;6.28;4.03;;;;;;;16.30;100.00;101159.56;694621;28;1908;-50
2023/06/25 00:29:54;;;;;;;6.60;4.07;;;;;;;16.28;100.00;101154.34;693256;28;1149;-49
2023/06/25 00:30:16;;;;;;;6.37;3.97;;;;;;;16.28;100.00;101153.44;695091;28;1468;-49
2023/06/25 00:30:37;;;;;;;6.18;3.80;;;;;;;16.29;100.00;101157.84;694791;28;4393;-49
2023/06/25 00:30:58;;;;;;;6.47;3.85;;;;;;;16.27;100.00;101155.22;692616;28;1685;-50
2023/06/25 00:31:18;;;;;;;6.60;4.10;;;;;;;16.27;100.00;101157.88;691568;28;1445;-50
2023/06/25 00:31:39;;;;;;;5.80;3.90;;;;;;;16.26;100.00;101161.41;695859;28;1011;-48
2023/06/25 00:31:59;;;;;;;5.93;4.00;;;;;;;16.26;100.00;101155.25;698330;28;758;-48
2023/06/25 00:32:20;;;;;;;6.03;4.20;;;;;;;16.26;100.00;101150.00;693250;28;1565;-51
2023/06/25 00:32:41;;;;;;;6.07;4.28;;;;;;;16.24;100.00;101152.66;696311;28;1460;-49
2023/06/25 00:33:02;;;;;;;6.25;4.25;;;;;;;16.24;100.00;101157.03;700372;28;887;-49
2023/06/25 00:33:22;;;;;;;6.30;4.38;;;;;;;16.24;100.00;101152.66;696039;28;1483;-50
2023/06/25 00:33:43;;;;;;;6.10;3.93;;;;;;;16.26;100.00;101150.00;694292;28;4373;-49
2023/06/25 00:34:03;;;;;;;6.32;4.13;;;;;;;16.25;100.00;101154.38;695063;28;1261;-49
2023/06/25 00:34:24;;;;;;;6.32;4.53;;;;;;;16.22;100.00;101149.16;695876;28;1720;-49
2023/06/25 00:34:46;;;;;;;5.47;3.92;;;;;;;16.21;100.00;101157.13;693916;28;800;-51
2023/06/25 00:35:06;;;;;;;5.90;3.78;;;;;;;16.19;100.00;101149.25;691248;28;1468;-49
2023/06/25 00:35:38;;;;;;;6.43;3.90;;;;;;;16.16;100.00;101147.53;692388;28;1362;-50
2023/06/25 00:36:05;;;;;;;6.18;4.25;;;;;;;16.18;100.00;101152.78;692116;28;903;-52
2023/06/25 00:36:25;;;;;;;6.40;4.05;;;;;;;16.17;100.00;101151.91;689358;28;2159;-51
2023/06/25 00:36:46;;;;;;;5.97;4.00;;;;;;;16.17;100.00;101149.28;688252;28;4315;-49
2023/06/25 00:37:17;;;;;;;5.87;3.97;;;;;;;16.16;100.00;101147.53;691461;28;1534;-51
2023/06/25 00:37:41;;;;;;;5.85;4.13;;;;;;;16.16;100.00;101149.31;694586;28;2290;-53
2023/06/25 00:38:01;;;;;;;5.78;3.92;;;;;;;16.14;100.00;101145.81;697135;28;889;-49
2023/06/25 00:38:22;;;;;;;5.82;3.95;;;;;;;16.12;100.00;101150.28;693508;28;1337;-48
2023/06/25 00:38:42;;;;;;;7.20;4.20;;;;;;;16.16;100.00;101149.31;694897;28;826;-50
2023/06/25 00:39:04;;;;;;;6.35;4.07;;;;;;;16.17;100.00;101156.31;693531;28;1617;-48
2023/06/25 00:39:24;;;;;;;5.70;4.07;;;;;;;16.13;100.00;101149.34;691483;28;1443;-49
2023/06/25 00:39:46;;;;;;;5.82;4.10;;;;;;;16.13;100.00;101149.34;694047;28;5101;-52
2023/06/25 00:40:10;;;;;;;7.20;4.47;;;;;;;16.13;100.00;101151.97;694707;28;1499;-48
2023/06/25 00:40:31;;;;;;;6.78;4.00;;;;;;;16.14;100.00;101148.44;697835;28;1244;-49
2023/06/25 00:40:52;;;;;;;6.50;4.63;;;;;;;16.16;100.00;101149.31;695417;28;1324;-50
2023/06/25 00:41:12;;;;;;;6.88;4.30;;;;;;;16.16;100.00;101141.41;694941;28;1660;-49
2023/06/25 00:41:33;;;;;;;6.73;4.10;;;;;;;16.13;100.00;101144.97;694520;28;1122;-48
2023/06/25 00:41:58;;;;;;;5.70;3.93;;;;;;;16.14;100.00;101145.81;693717;28;847;-49
2023/06/25 00:42:19;;;;;;;5.85;4.00;;;;;;;16.14;100.00;101146.72;692102;28;2020;-51
2023/06/25 00:42:43;;;;;;;6.03;4.10;;;;;;;16.15;100.00;101143.16;695811;28;4289;-49
2023/06/25 00:43:04;;;;;;;6.50;4.25;;;;;;;16.14;100.00;101151.97;693689;28;1287;-49
2023/06/25 00:43:25;;;;;;;7.40;4.10;;;;;;;16.12;100.00;101147.63;694474;28;1783;-50
2023/06/25 00:43:45;;;;;;;6.93;4.00;;;;;;;16.11;100.00;101143.25;697389;28;917;-52
2023/06/25 00:44:06;;;;;;;6.45;4.03;;;;;;;16.10;100.00;101146.78;693758;28;1653;-49
2023/06/25 00:44:28;;;;;;;5.47;4.05;;;;;;;16.11;100.00;101149.38;690995;28;1402;-49
2023/06/25 00:44:48;;;;;;;6.00;4.18;;;;;;;16.12;100.00;101147.63;692648;28;971;-51
2023/06/25 00:45:12;;;;;;;6.10;3.97;;;;;;;16.12;100.00;101147.63;695283;28;1560;-50
2023/06/25 00:45:34;;;;;;;6.50;4.18;;;;;;;16.10;100.00;101149.41;693768;28;4554;-49
2023/06/25 00:45:55;;;;;;;6.25;4.00;;;;;;;16.08;100.00;101148.59;695474;28;1055;-49
2023/06/25 00:46:15;;;;;;;6.25;3.90;;;;;;;16.07;100.00;101147.69;697672;28;1497;-54
2023/06/25 00:46:36;;;;;;;6.43;4.10;;;;;;;16.09;100.00;101147.66;699530;28;817;-49
2023/06/25 00:46:59;;;;;;;5.45;4.20;;;;;;;16.08;100.00;101146.81;697642;28;1156;-49
2023/06/25 00:47:22;;;;;;;7.20;4.30;;;;;;;16.08;100.00;101148.59;693948;28;1527;-51
2023/06/25 00:47:45;;;;;;;5.82;4.07;;;;;;;16.11;100.00;101151.16;698402;28;1445;-50
2023/06/25 00:48:06;;;;;;;5.68;3.90;;;;;;;16.09;100.00;101147.66;697435;28;1696;-48
2023/06/25 00:48:27;;;;;;;6.30;3.70;;;;;;;16.10;100.00;101149.41;696768;28;945;-50
2023/06/25 00:48:49;;;;;;;7.68;3.83;;;;;;;16.08;100.00;101149.44;696783;28;4446;-49
2023/06/25 00:49:10;;;;;;;6.82;3.80;;;;;;;16.07;100.00;101144.22;698622;28;1518;-49
2023/06/25 00:49:33;;;;;;;6.00;4.10;;;;;;;16.04;100.00;101149.56;699276;28;910;-52
2023/06/25 00:49:53;;;;;;;5.55;3.75;;;;;;;16.00;100.00;101152.25;700379;28;1210;-48
2023/06/25 00:50:14;;;;;;;6.28;4.05;;;;;;;16.01;100.00;101155.75;699389;28;1447;-50
2023/06/25 00:50:35;;;;;;;6.22;4.13;;;;;;;16.03;100.00;101147.81;700429;28;907;-49
2023/06/25 00:51:01;;;;;;;6.07;4.00;;;;;;;16.04;100.00;101144.28;700767;28;1274;-49
2023/06/25 00:51:21;;;;;;;5.78;3.97;;;;;;;15.98;100.00;101148.75;694929;28;1518;-49
2023/06/25 00:51:43;;;;;;;6.25;4.20;;;;;;;15.96;100.00;101158.50;694602;28;4555;-49
2023/06/25 00:52:08;;;;;;;5.55;4.18;;;;;;;15.96;100.00;101153.22;692949;28;1175;-51
2023/06/25 00:52:30;;;;;;;5.97;4.07;;;;;;;15.99;100.00;101147.88;694331;28;1372;-50
2023/06/25 00:52:52;;;;;;;5.60;4.03;;;;;;;15.98;100.00;101142.63;692651;28;884;-49
2023/06/25 00:53:13;;;;;;;5.78;3.92;;;;;;;15.97;100.00;101149.66;690632;28;1492;-50
2023/06/25 00:53:37;;;;;;;6.72;4.03;;;;;;;15.93;100.00;101147.97;690980;28;975;-48
2023/06/25 00:53:58;;;;;;;6.70;4.35;;;;;;;15.93;100.00;101150.63;693941;28;1222;-48
2023/06/25 00:54:18;;;;;;;6.97;4.50;;;;;;;15.95;100.00;101146.19;693987;28;1590;-48
2023/06/25 00:54:43;;;;;;;7.55;4.35;;;;;;;15.95;100.00;101151.47;693796;28;4459;-48
2023/06/25 00:55:04;;;;;;;6.45;4.00;;;;;;;15.96;100.00;101147.94;694430;28;1301;-50
2023/06/25 00:55:25;;;;;;;6.83;3.87;;;;;;;15.96;100.00;101147.06;696040;28;1728;-49
2023/06/25 00:55:50;;;;;;;6.63;4.03;;;;;;;15.96;100.00;101147.06;697747;28;1491;-50
2023/06/25 00:56:11;;;;;;;6.03;3.90;;;;;;;15.93;100.00;101141.84;697475;28;2011;-49
2023/06/25 00:56:33;;;;;;;5.90;3.85;;;;;;;15.90;100.00;101141.91;696160;28;915;-50
2023/06/25 00:56:53;;;;;;;6.22;3.72;;;;;;;15.90;100.00;101148.03;697132;28;1996;-48
2023/06/25 00:57:15;;;;;;;5.50;3.77;;;;;;;15.91;100.00;101144.50;696707;28;1416;-52
2023/06/25 00:57:36;;;;;;;6.20;3.90;;;;;;;15.94;100.00;101144.44;695934;28;4281;-49
2023/06/25 00:58:00;;;;;;;5.50;3.83;;;;;;;15.91;100.00;101144.50;694651;28;1310;-52
2023/06/25 00:58:20;;;;;;;6.03;3.80;;;;;;;15.98;100.00;101142.63;696292;28;1586;-51
2023/06/25 00:58:41;;;;;;;6.15;3.92;;;;;;;15.98;100.00;101143.50;700895;28;1147;-49
2023/06/25 00:59:02;;;;;;;8.85;4.20;;;;;;;15.99;100.00;101142.59;698641;28;927;-49
2023/06/25 00:59:23;;;;;;;8.63;4.20;;;;;;;15.98;100.00;101146.13;695809;28;1613;-49
2023/06/25 00:59:44;;;;;;;6.07;3.93;;;;;;;15.94;100.00;101144.44;700510;28;985;-50
2023/06/25 01:00:06;;;;;;;6.22;4.13;;;;;;;15.93;100.00;101147.13;700387;28;1030;-49
2023/06/25 01:00:28;;;;;;;6.00;4.10;;;;;;;15.93;100.00;101141.84;699854;28;999;-50
2023/06/25 01:00:54;;;;;;;6.05;4.05;;;;;;;15.95;100.00;101151.47;696284;28;4354;-51
2023/06/25 01:01:26;;;;;;;5.30;3.80;;;;;;;15.94;100.00;101144.44;698159;28;1465;-52
2023/06/25 01:01:55;;;;;;;6.43;4.00;;;;;;;15.95;100.00;101150.56;698269;28;3189;-49
2023/06/25 01:02:28;;;;;;;6.15;3.92;;;;;;;15.91;100.00;101149.78;697849;28;906;-49
2023/06/25 01:02:56;;;;;;;6.57;4.03;;;;;;;15.93;100.00;101147.13;699028;28;812;-49
2023/06/25 01:03:29;;;;;;;5.38;3.95;;;;;;;15.94;100.00;101146.22;698670;28;1527;-49
2023/06/25 01:03:56;;;;;;;6.10;3.90;;;;;;;15.90;100.00;101142.78;698650;28;4567;-48
2023/06/25 01:04:25;;;;;;;6.40;4.00;;;;;;;15.83;100.00;101141.16;697201;28;1696;-49
2023/06/25 01:05:12;;;;;;;5.43;4.03;;;;;;;15.84;100.00;101145.53;698672;28;1293;-52
2023/06/25 01:06:12;;;;;;;6.60;4.18;;;;;;;15.79;100.00;101139.44;699775;28;1303;-50
2023/06/25 01:06:40;;;;;;;7.45;4.38;;;;;;;15.80;100.00;101142.06;699418;28;4490;-48
2023/06/25 01:07:04;;;;;;;6.50;4.35;;;;;;;15.78;100.00;101140.34;700526;28;1087;-49
2023/06/25 01:07:25;;;;;;;5.68;4.00;;;;;;;15.79;100.00;101144.72;698149;28;1513;-49
2023/06/25 01:07:47;;;;;;;5.80;3.97;;;;;;;15.79;100.00;101148.25;698684;28;949;-49
2023/06/25 01:08:09;;;;;;;5.60;3.80;;;;;;;15.80;100.00;101147.34;697747;28;1571;-49
2023/06/25 01:08:30;;;;;;;6.13;3.90;;;;;;;15.82;100.00;101140.31;698960;28;1405;-50
2023/06/25 01:08:51;;;;;;;7.07;4.07;;;;;;;15.83;100.00;101146.44;700630;28;860;-49
2023/06/25 01:09:12;;;;;;;6.80;4.05;;;;;;;15.85;100.00;101143.75;697121;28;1598;-49
2023/06/25 01:09:32;;;;;;;5.82;3.92;;;;;;;15.85;100.00;101139.34;694657;28;4560;-48
2023/06/25 01:09:55;;;;;;;6.17;4.00;;;;;;;15.85;100.00;101141.13;692761;28;1162;-49
2023/06/25 01:10:16;;;;;;;5.63;3.72;;;;;;;15.84;100.00;101145.53;689330;28;1536;-53
2023/06/25 01:10:38;;;;;;;7.05;4.30;;;;;;;15.83;100.00;101146.44;693801;28;925;-48
2023/06/25 01:10:59;;;;;;;6.97;4.35;;;;;;;15.81;100.00;101145.56;692693;28;832;-49
2023/06/25 01:11:19;;;;;;;7.10;4.23;;;;;;;15.78;100.00;101143.84;693844;28;1893;-49
2023/06/25 01:11:39;;;;;;;6.88;4.47;;;;;;;15.78;100.00;101145.59;694019;28;1375;-49
2023/06/25 01:12:03;;;;;;;6.63;4.30;;;;;;;15.81;100.00;101140.31;694428;28;1550;-52
2023/06/25 01:12:24;;;;;;;6.28;4.25;;;;;;;15.82;100.00;101139.41;695934;28;1527;-51
2023/06/25 01:12:44;;;;;;;6.03;3.90;;;;;;;15.82;100.00;101136.78;696419;28;4645;-50
2023/06/25 01:13:05;;;;;;;5.90;3.80;;;;;;;15.81;100.00;101135.91;698057;28;1118;-49
2023/06/25 01:13:26;;;;;;;5.90;4.00;;;;;;;15.82;100.00;101139.41;693513;28;1464;-48
2023/06/25 01:13:46;;;;;;;6.90;4.07;;;;;;;15.81;100.00;101138.56;698296;28;962;-50
2023/06/25 01:14:09;;;;;;;6.77;4.07;;;;;;;15.81;100.00;101137.66;700833;28;1042;-49
2023/06/25 01:14:32;;;;;;;6.80;3.85;;;;;;;15.81;100.00;101133.28;698927;28;903;-48
2023/06/25 01:14:53;;;;;;;5.68;3.85;;;;;;;15.80;100.00;101141.22;694900;28;1457;-48
2023/06/25 01:15:13;;;;;;;6.35;4.32;;;;;;;15.81;100.00;101137.66;694771;28;1604;-50
2023/06/25 01:15:34;;;;;;;5.70;3.87;;;;;;;15.81;100.00;101148.22;696791;28;4749;-48
2023/06/25 01:15:55;;;;;;;6.00;3.88;;;;;;;15.80;100.00;101136.81;696935;28;802;-51
2023/06/25 01:16:15;;;;;;;5.88;3.80;;;;;;;15.79;100.00;101135.06;695672;28;1657;-48
2023/06/25 01:16:37;;;;;;;6.53;4.00;;;;;;;15.79;100.00;101139.44;696642;28;1983;-50
2023/06/25 01:16:58;;;;;;;6.10;3.80;;;;;;;15.77;100.00;101136.84;696192;28;1127;-48
2023/06/25 01:17:19;;;;;;;6.13;4.03;;;;;;;15.77;100.00;101136.84;696410;28;1621;-53
2023/06/25 01:17:39;;;;;;;6.30;4.27;;;;;;;15.78;100.00;101137.69;698585;28;959;-51
2023/06/25 01:18:00;;;;;;;6.95;4.00;;;;;;;15.78;100.00;101140.34;696828;28;1053;-49
2023/06/25 01:18:22;;;;;;;6.63;4.20;;;;;;;15.78;100.00;101140.34;696025;28;1452;-48
2023/06/25 01:18:43;;;;;;;6.85;4.30;;;;;;;15.78;100.00;101137.69;697885;28;4437;-51
2023/06/25 01:19:04;;;;;;;6.38;4.00;;;;;;;15.78;100.00;101140.34;697707;28;1391;-48
2023/06/25 01:19:31;;;;;;;6.20;4.30;;;;;;;15.75;100.00;101133.34;693052;28;1839;-50
2023/06/25 01:19:51;;;;;;;6.85;4.00;;;;;;;15.74;100.00;101142.19;693539;28;1219;-48
2023/06/25 01:20:11;;;;;;;6.43;4.00;;;;;;;15.75;100.00;101138.63;694793;28;1652;-48
2023/06/25 01:20:32;;;;;;;6.30;4.10;;;;;;;15.74;100.00;101138.66;694057;28;5279;-49
2023/06/25 01:20:56;;;;;;;6.20;4.20;;;;;;;15.74;100.00;101136.91;694766;28;1137;-51
2023/06/25 01:21:18;;;;;;;5.95;4.25;;;;;;;15.73;100.00;101134.28;697278;28;1658;-49
2023/06/25 01:21:59;;;;;;;6.25;4.20;;;;;;;15.76;100.00;101136.88;696903;28;4389;-49
2023/06/25 01:22:31;;;;;;;5.50;3.70;;;;;;;15.73;100.00;101139.53;699502;28;1196;-49
2023/06/25 01:22:52;;;;;;;5.75;3.78;;;;;;;15.73;100.00;101142.16;700582;28;798;-49
2023/06/25 01:23:13;;;;;;;7.35;4.40;;;;;;;15.71;100.00;101136.94;696679;28;1448;-51
2023/06/25 01:23:35;;;;;;;8.93;4.40;;;;;;;15.71;100.00;101136.94;698809;28;1107;-48
2023/06/25 01:23:56;;;;;;;6.63;4.15;;;;;;;15.72;100.00;101140.47;696405;28;895;-52
2023/06/25 01:24:16;;;;;;;5.88;3.90;;;;;;;15.72;100.00;101138.69;694842;28;1511;-50
2023/06/25 01:24:37;;;;;;;6.70;4.10;;;;;;;15.74;100.00;101141.28;696965;28;4698;-49
2023/06/25 01:24:58;;;;;;;6.18;4.20;;;;;;;15.73;100.00;101136.91;692011;28;1128;-49
2023/06/25 01:25:18;;;;;;;6.53;4.30;;;;;;;15.72;100.00;101143.94;690570;28;1558;-50
2023/06/25 01:25:39;;;;;;;6.40;4.00;;;;;;;15.73;100.00;101139.53;689815;28;774;-51
2023/06/25 01:26:00;;;;;;;6.15;3.72;;;;;;;15.74;100.00;101139.53;689892;28;1252;-49
2023/06/25 01:26:20;;;;;;;5.73;3.80;;;;;;;15.75;100.00;101138.63;687313;28;1652;-51
2023/06/25 01:26:40;;;;;;;6.35;4.07;;;;;;;15.74;100.00;101133.38;690831;28;1273;-49
2023/06/25 01:27:03;;;;;;;6.33;4.07;;;;;;;15.75;100.00;101132.50;694216;28;882;-49
2023/06/25 01:27:24;;;;;;;6.38;4.03;;;;;;;15.75;100.00;101137.75;696022;28;954;-50
2023/06/25 01:27:45;;;;;;;6.63;4.28;;;;;;;15.76;100.00;101134.22;698896;28;4302;-51
2023/06/25 01:28:05;;;;;;;6.90;4.23;;;;;;;15.75;100.00;101133.34;701083;28;1138;-50
2023/06/25 01:28:26;;;;;;;6.53;4.27;;;;;;;15.74;100.00;101134.28;697252;28;1534;-52
2023/06/25 01:28:46;;;;;;;6.65;4.43;;;;;;;15.73;100.00;101140.44;696902;28;1011;-49
2023/06/25 01:29:06;;;;;;;5.50;4.23;;;;;;;15.73;100.00;101135.16;698798;28;757;-49
2023/06/25 01:29:28;;;;;;;6.18;4.28;;;;;;;15.74;100.00;101130.75;691523;28;1289;-50
2023/06/25 01:29:49;;;;;;;6.18;4.20;;;;;;;15.75;100.00;101135.13;692520;28;879;-51
2023/06/25 01:30:11;;;;;;;6.60;4.10;;;;;;;15.75;100.00;101141.25;690667;28;1619;-49
2023/06/25 01:30:32;;;;;;;5.75;4.03;;;;;;;15.75;100.00;101132.50;688825;28;4557;-48
2023/06/25 01:30:54;;;;;;;6.40;4.35;;;;;;;15.74;100.00;101130.75;692151;28;799;-51
2023/06/25 01:31:15;;;;;;;6.25;4.40;;;;;;;15.72;100.00;101130.78;691818;28;1631;-50
2023/06/25 01:31:35;;;;;;;7.03;4.13;;;;;;;15.71;100.00;101125.53;699076;28;974;-48
2023/06/25 01:31:57;;;;;;;7.43;4.30;;;;;;;15.70;100.00;101134.34;697392;28;813;-49
2023/06/25 01:32:19;;;;;;;6.32;4.40;;;;;;;15.69;100.00;101138.75;697701;28;1599;-49
2023/06/25 01:32:43;;;;;;;7.70;4.30;;;;;;;15.67;100.00;101132.63;698568;28;1341;-49
2023/06/25 01:33:04;;;;;;;6.97;4.20;;;;;;;15.67;100.00;101129.97;699918;28;881;-49
2023/06/25 01:33:26;;;;;;;5.93;4.20;;;;;;;15.66;100.00;101137.03;696728;28;943;-50
2023/06/25 01:33:46;;;;;;;6.55;4.28;;;;;;;15.67;100.00;101132.63;694155;28;4637;-49
2023/06/25 01:34:06;;;;;;;5.77;4.33;;;;;;;15.65;100.00;101127.38;694273;28;1231;-49
2023/06/25 01:34:27;;;;;;;6.15;4.30;;;;;;;15.64;100.00;101130.03;690490;28;1539;-50
2023/06/25 01:34:47;;;;;;;6.30;4.43;;;;;;;15.64;100.00;101133.53;690690;28;874;-50
2023/06/25 01:35:08;;;;;;;6.03;4.32;;;;;;;15.65;100.00;101132.66;689509;28;1644;-49
2023/06/25 01:35:30;;;;;;;6.78;4.25;;;;;;;15.69;100.00;101133.47;688902;28;1728;-50
2023/06/25 01:35:53;;;;;;;6.80;4.30;;;;;;;15.68;100.00;101126.47;689881;28;1156;-50
2023/06/25 01:36:13;;;;;;;6.68;4.43;;;;;;;15.68;100.00;101130.88;693247;28;1783;-53
2023/06/25 01:36:39;;;;;;;6.80;4.27;;;;;;;15.66;100.00;101129.13;697486;28;4449;-52
2023/06/25 01:37:00;;;;;;;6.45;4.35;;;;;;;15.69;100.00;101122.94;699133;28;908;-49
2023/06/25 01:37:20;;;;;;;7.20;4.40;;;;;;;15.70;100.00;101134.34;697042;28;1503;-49
2023/06/25 01:37:41;;;;;;;6.10;4.07;;;;;;;15.71;100.00;101130.81;700606;28;1304;-49
2023/06/25 01:38:01;;;;;;;5.63;3.87;;;;;;;15.69;100.00;101130.84;700440;28;936;-50
2023/06/25 01:38:21;;;;;;;5.93;4.10;;;;;;;15.70;100.00;101123.78;698544;28;1554;-50
2023/06/25 01:38:42;;;;;;;6.07;4.40;;;;;;;15.69;100.00;101125.56;701191;28;923;-48
2023/06/25 01:39:04;;;;;;;5.82;4.05;;;;;;;15.67;100.00;101129.97;699812;28;1222;-53
2023/06/25 01:39:24;;;;;;;6.90;4.18;;;;;;;15.65;100.00;101122.09;696745;28;1504;-50
2023/06/25 01:39:50;;;;;;;6.03;4.10;;;;;;;15.65;100.00;101122.09;696149;28;4546;-52
2023/06/25 01:40:11;;;;;;;6.88;4.55;;;;;;;15.64;100.00;101124.78;696716;28;1631;-48
2023/06/25 01:40:32;;;;;;;6.10;4.30;;;;;;;15.63;100.00;101128.31;699349;28;931;-49
2023/06/25 01:40:52;;;;;;;6.18;4.30;;;;;;;15.63;100.00;101118.66;695153;28;1302;-51
2023/06/25 01:41:13;;;;;;;6.67;4.00;;;;;;;15.62;100.00;101127.44;695079;28;1452;-50
2023/06/25 01:41:33;;;;;;;6.05;3.97;;;;;;;15.62;100.00;101121.31;698693;28;991;-49
2023/06/25 01:41:53;;;;;;;5.90;4.10;;;;;;;15.60;100.00;101123.97;697748;28;864;-52
2023/06/25 01:42:14;;;;;;;6.90;4.20;;;;;;;15.61;100.00;101123.06;695494;28;1434;-49
2023/06/25 01:42:35;;;;;;;6.23;4.30;;;;;;;15.63;100.00;101125.66;694621;28;4348;-50
2023/06/25 01:42:55;;;;;;;6.32;4.38;;;;;;;15.63;100.00;101120.41;694149;28;1238;-49
2023/06/25 01:43:16;;;;;;;6.25;4.38;;;;;;;15.62;100.00;101127.44;692697;28;1531;-51
2023/06/25 01:43:36;;;;;;;5.83;4.33;;;;;;;15.63;100.00;101123.91;693850;28;923;-49